sensor_id;sensor_type;location;lat;lon;timestamp;pressure;altitude;pressure_sealevel;temperature;humidity
11413;BME280;5762;43.256;26.960;2023-02-14T00:00:05;101188.03;;;-0.19;100.00
11413;BME280;5762;43.256;26.960;2023-02-14T00:02:35;101188.86;;;-0.19;100.00
11413;BME280;5762;43.256;26.960;2023-02-14T00:05:03;101181.12;;;-0.14;100.00
11413;BME280;5762;43.256;26.960;2023-02-14T00:07:33;101186.95;;;0.14;100.00
11413;BME280;5762;43.256;26.960;2023-02-14T00:10:01;101190.83;;;0.00;100.00
11413;BME280;5762;43.256;26.960;2023-02-14T00:12:30;101183.92;;;0.06;100.00
11413;BME280;5762;43.256;26.960;2023-02-14T00:14:59;101183.16;;;0.02;100.00
11413;BME280;5762;43.256;26.960;2023-02-14T00:17:45;101188.71;;;0.00;100.00
11413;BME280;5762;43.256;26.960;2023-02-14T00:20:14;101187.84;;;0.10;100.00
11413;BME280;5762;43.256;26.960;2023-02-14T00:22:43;101184.34;;;0.20;100.00
11413;BME280;5762;43.256;26.960;2023-02-14T00:25:12;101184.72;;;0.17;100.00
11413;BME280;5762;43.256;26.960;2023-02-14T00:27:41;101173.91;;;0.08;100.00
11413;BME280;5762;43.256;26.960;2023-02-14T00:30:10;101181.12;;;0.14;100.00
11413;BME280;5762;43.256;26.960;2023-02-14T00:32:40;101178.16;;;0.03;100.00
11413;BME280;5762;43.256;26.960;2023-02-14T00:35:09;101172.77;;;0.07;100.00
11413;BME280;5762;43.256;26.960;2023-02-14T00:37:38;101176.05;;;0.09;100.00
11413;BME280;5762;43.256;26.960;2023-02-14T00:40:07;101168.63;;;0.15;100.00
11413;BME280;5762;43.256;26.960;2023-02-14T00:42:35;101165.80;;;0.06;100.00
11413;BME280;5762;43.256;26.960;2023-02-14T00:45:04;101155.00;;;0.14;100.00
11413;BME280;5762;43.256;26.960;2023-02-14T00:47:33;101158.92;;;0.18;100.00
11413;BME280;5762;43.256;26.960;2023-02-14T00:50:02;101155.39;;;0.11;100.00
11413;BME280;5762;43.256;26.960;2023-02-14T00:52:31;101153.21;;;0.21;100.00
11413;BME280;5762;43.256;26.960;2023-02-14T00:54:59;101143.42;;;-0.07;100.00
11413;BME280;5762;43.256;26.960;2023-02-14T00:57:28;101140.56;;;-0.05;100.00
11413;BME280;5762;43.256;26.960;2023-02-14T00:59:57;101144.43;;;0.10;100.00
11413;BME280;5762;43.256;26.960;2023-02-14T01:02:26;101138.23;;;0.03;100.00
11413;BME280;5762;43.256;26.960;2023-02-14T01:04:55;101134.68;;;-0.11;100.00
11413;BME280;5762;43.256;26.960;2023-02-14T01:07:24;101123.67;;;-0.19;100.00
11413;BME280;5762;43.256;26.960;2023-02-14T01:09:52;101109.67;;;-0.17;100.00
11413;BME280;5762;43.256;26.960;2023-02-14T01:12:21;101113.08;;;-0.12;100.00
11413;BME280;5762;43.256;26.960;2023-02-14T01:14:50;101110.61;;;-0.14;100.00
11413;BME280;5762;43.256;26.960;2023-02-14T01:17:19;101113.17;;;-0.27;100.00
11413;BME280;5762;43.256;26.960;2023-02-14T01:19:50;101108.34;;;-0.45;100.00
11413;BME280;5762;43.256;26.960;2023-02-14T01:22:17;101099.28;;;-0.40;100.00
11413;BME280;5762;43.256;26.960;2023-02-14T01:24:46;101090.63;;;-0.31;100.00
11413;BME280;5762;43.256;26.960;2023-02-14T01:27:15;101093.97;;;-0.22;100.00
11413;BME280;5762;43.256;26.960;2023-02-14T01:29:44;101083.83;;;-0.40;100.00
11413;BME280;5762;43.256;26.960;2023-02-14T01:32:13;101091.64;;;-0.32;100.00
11413;BME280;5762;43.256;26.960;2023-02-14T01:34:42;101091.94;;;-0.20;100.00
11413;BME280;5762;43.256;26.960;2023-02-14T01:37:11;101088.47;;;-0.31;100.00
11413;BME280;5762;43.256;26.960;2023-02-14T01:39:40;101091.42;;;-0.37;100.00
11413;BME280;5762;43.256;26.960;2023-02-14T01:42:09;101095.84;;;-0.83;100.00
11413;BME280;5762;43.256;26.960;2023-02-14T01:47:08;101080.28;;;-0.86;100.00
11413;BME280;5762;43.256;26.960;2023-02-14T01:49:44;101076.73;;;-0.93;100.00
11413;BME280;5762;43.256;26.960;2023-02-14T01:52:13;101081.72;;;-0.94;100.00
11413;BME280;5762;43.256;26.960;2023-02-14T01:54:38;101083.00;;;-1.11;100.00
11413;BME280;5762;43.256;26.960;2023-02-14T01:57:08;101064.34;;;-1.07;100.00
11413;BME280;5762;43.256;26.960;2023-02-14T01:59:39;101057.31;;;-1.15;100.00
11413;BME280;5762;43.256;26.960;2023-02-14T02:02:07;101063.71;;;-1.09;100.00
11413;BME280;5762;43.256;26.960;2023-02-14T02:04:38;101056.55;;;-0.98;100.00
11413;BME280;5762;43.256;26.960;2023-02-14T02:07:13;101041.30;;;-0.79;100.00
11413;BME280;5762;43.256;26.960;2023-02-14T02:09:38;101046.23;;;-0.86;100.00
11413;BME280;5762;43.256;26.960;2023-02-14T02:12:06;101040.59;;;-0.98;100.00
11413;BME280;5762;43.256;26.960;2023-02-14T02:14:34;101042.88;;;-0.95;100.00
11413;BME280;5762;43.256;26.960;2023-02-14T02:19:52;101036.95;;;-1.08;100.00
11413;BME280;5762;43.256;26.960;2023-02-14T02:22:25;101037.84;;;-1.11;100.00
11413;BME280;5762;43.256;26.960;2023-02-14T02:33:13;101012.24;;;-1.76;100.00
11413;BME280;5762;43.256;26.960;2023-02-14T02:35:48;101010.27;;;-1.67;100.00
11413;BME280;5762;43.256;26.960;2023-02-14T02:46:07;101021.59;;;-1.95;100.00
11413;BME280;5762;43.256;26.960;2023-02-14T02:51:23;101026.02;;;-1.91;100.00
11413;BME280;5762;43.256;26.960;2023-02-14T02:54:13;101028.22;;;-1.95;100.00
11413;BME280;5762;43.256;26.960;2023-02-14T02:56:34;101018.79;;;-2.08;100.00
11413;BME280;5762;43.256;26.960;2023-02-14T02:59:22;101021.45;;;-1.97;100.00
11413;BME280;5762;43.256;26.960;2023-02-14T03:02:04;101025.84;;;-1.90;100.00
11413;BME280;5762;43.256;26.960;2023-02-14T03:04:32;101023.79;;;-1.98;100.00
11413;BME280;5762;43.256;26.960;2023-02-14T03:07:29;101017.88;;;-1.90;100.00
11413;BME280;5762;43.256;26.960;2023-02-14T03:10:11;101003.24;;;-2.11;100.00
11413;BME280;5762;43.256;26.960;2023-02-14T03:17:48;100981.83;;;-1.84;100.00
11413;BME280;5762;43.256;26.960;2023-02-14T03:20:22;100977.03;;;-1.85;100.00
11413;BME280;5762;43.256;26.960;2023-02-14T03:23:03;100984.31;;;-1.97;100.00
11413;BME280;5762;43.256;26.960;2023-02-14T03:25:36;100976.36;;;-1.97;100.00
11413;BME280;5762;43.256;26.960;2023-02-14T03:28:03;100971.70;;;-2.21;100.00
11413;BME280;5762;43.256;26.960;2023-02-14T03:30:35;100963.64;;;-2.13;100.00
11413;BME280;5762;43.256;26.960;2023-02-14T03:33:04;100953.82;;;-2.23;100.00
11413;BME280;5762;43.256;26.960;2023-02-14T03:35:36;100953.87;;;-2.42;100.00
11413;BME280;5762;43.256;26.960;2023-02-14T03:38:10;100948.56;;;-2.27;100.00
11413;BME280;5762;43.256;26.960;2023-02-14T03:40:45;100959.30;;;-2.39;100.00
11413;BME280;5762;43.256;26.960;2023-02-14T03:43:22;100927.81;;;-2.38;100.00
11413;BME280;5762;43.256;26.960;2023-02-14T03:45:59;100931.01;;;-2.28;100.00
11413;BME280;5762;43.256;26.960;2023-02-14T03:48:22;100923.05;;;-2.28;100.00
11413;BME280;5762;43.256;26.960;2023-02-14T03:50:51;100927.48;;;-2.24;100.00
11413;BME280;5762;43.256;26.960;2023-02-14T03:53:21;100930.78;;;-2.22;100.00
11413;BME280;5762;43.256;26.960;2023-02-14T03:56:07;100927.94;;;-2.21;100.00
11413;BME280;5762;43.256;26.960;2023-02-14T03:58:39;100911.90;;;-2.23;100.00
11413;BME280;5762;43.256;26.960;2023-02-14T04:01:12;100918.77;;;-2.29;100.00
11413;BME280;5762;43.256;26.960;2023-02-14T04:03:40;100913.59;;;-2.26;100.00
11413;BME280;5762;43.256;26.960;2023-02-14T04:06:09;100905.09;;;-2.37;100.00
11413;BME280;5762;43.256;26.960;2023-02-14T04:08:37;100914.92;;;-2.41;100.00
11413;BME280;5762;43.256;26.960;2023-02-14T04:11:05;100918.61;;;-2.57;100.00
11413;BME280;5762;43.256;26.960;2023-02-14T04:13:35;100909.88;;;-2.61;100.00
11413;BME280;5762;43.256;26.960;2023-02-14T04:16:04;100916.38;;;-2.49;100.00
11413;BME280;5762;43.256;26.960;2023-02-14T04:18:32;100913.42;;;-2.40;100.00
11413;BME280;5762;43.256;26.960;2023-02-14T04:21:18;100911.09;;;-2.39;100.00
11413;BME280;5762;43.256;26.960;2023-02-14T04:23:46;100918.53;;;-2.23;100.00
11413;BME280;5762;43.256;26.960;2023-02-14T04:26:20;100916.52;;;-2.36;100.00
11413;BME280;5762;43.256;26.960;2023-02-14T04:28:44;100924.65;;;-2.48;100.00
11413;BME280;5762;43.256;26.960;2023-02-14T04:31:13;100937.28;;;-2.40;100.00
11413;BME280;5762;43.256;26.960;2023-02-14T04:33:43;100928.69;;;-2.42;100.00
11413;BME280;5762;43.256;26.960;2023-02-14T04:36:12;100924.09;;;-2.58;100.00
11413;BME280;5762;43.256;26.960;2023-02-14T04:38:41;100922.09;;;-2.56;100.00
11413;BME280;5762;43.256;26.960;2023-02-14T04:41:10;100930.62;;;-2.65;100.00
11413;BME280;5762;43.256;26.960;2023-02-14T04:43:38;100928.25;;;-2.60;100.00
11413;BME280;5762;43.256;26.960;2023-02-14T04:46:07;100928.58;;;-2.44;100.00
11413;BME280;5762;43.256;26.960;2023-02-14T04:48:36;100928.13;;;-2.37;100.00
11413;BME280;5762;43.256;26.960;2023-02-14T04:51:04;100940.11;;;-2.41;100.00
11413;BME280;5762;43.256;26.960;2023-02-14T04:53:33;100927.08;;;-2.32;100.00
11413;BME280;5762;43.256;26.960;2023-02-14T04:56:02;100933.80;;;-2.25;100.00
11413;BME280;5762;43.256;26.960;2023-02-14T04:58:32;100929.36;;;-2.29;100.00
11413;BME280;5762;43.256;26.960;2023-02-14T05:01:01;100927.41;;;-2.31;100.00
11413;BME280;5762;43.256;26.960;2023-02-14T05:03:29;100927.63;;;-2.37;100.00
11413;BME280;5762;43.256;26.960;2023-02-14T05:05:57;100928.95;;;-2.37;100.00
11413;BME280;5762;43.256;26.960;2023-02-14T05:08:26;100932.42;;;-2.21;100.00
11413;BME280;5762;43.256;26.960;2023-02-14T05:10:55;100931.45;;;-1.99;100.00
11413;BME280;5762;43.256;26.960;2023-02-14T05:13:24;100928.48;;;-2.00;100.00
11413;BME280;5762;43.256;26.960;2023-02-14T05:15:53;100928.03;;;-2.04;100.00
11413;BME280;5762;43.256;26.960;2023-02-14T05:18:22;100934.79;;;-2.01;100.00
11413;BME280;5762;43.256;26.960;2023-02-14T05:20:51;100919.09;;;-1.92;100.00
11413;BME280;5762;43.256;26.960;2023-02-14T05:23:20;100932.53;;;-1.93;100.00
11413;BME280;5762;43.256;26.960;2023-02-14T05:25:49;100916.21;;;-1.76;100.00
11413;BME280;5762;43.256;26.960;2023-02-14T05:28:19;100920.38;;;-1.77;100.00
11413;BME280;5762;43.256;26.960;2023-02-14T05:30:48;100923.45;;;-1.84;100.00
11413;BME280;5762;43.256;26.960;2023-02-14T05:33:16;100933.75;;;-1.85;100.00
11413;BME280;5762;43.256;26.960;2023-02-14T05:35:45;100930.98;;;-1.77;100.00
11413;BME280;5762;43.256;26.960;2023-02-14T05:38:14;100931.16;;;-1.68;100.00
11413;BME280;5762;43.256;26.960;2023-02-14T05:40:43;100939.20;;;-1.51;100.00
11413;BME280;5762;43.256;26.960;2023-02-14T05:43:12;100934.59;;;-1.42;100.00
11413;BME280;5762;43.256;26.960;2023-02-14T05:45:40;100932.51;;;-1.47;100.00
11413;BME280;5762;43.256;26.960;2023-02-14T05:48:09;100936.75;;;-1.42;100.00
11413;BME280;5762;43.256;26.960;2023-02-14T05:50:39;100937.98;;;-1.38;100.00
11413;BME280;5762;43.256;26.960;2023-02-14T05:53:08;100936.40;;;-1.32;100.00
11413;BME280;5762;43.256;26.960;2023-02-14T05:55:37;100948.22;;;-1.24;100.00
11413;BME280;5762;43.256;26.960;2023-02-14T05:58:05;100947.59;;;-1.15;100.00
11413;BME280;5762;43.256;26.960;2023-02-14T06:00:34;100941.83;;;-1.08;100.00
11413;BME280;5762;43.256;26.960;2023-02-14T06:03:03;100940.02;;;-1.01;100.00
11413;BME280;5762;43.256;26.960;2023-02-14T06:05:31;100940.11;;;-0.77;100.00
11413;BME280;5762;43.256;26.960;2023-02-14T06:07:59;100932.77;;;-0.69;100.00
11413;BME280;5762;43.256;26.960;2023-02-14T06:10:28;100932.12;;;-0.60;100.00
11413;BME280;5762;43.256;26.960;2023-02-14T06:12:57;100921.05;;;-0.63;100.00
11413;BME280;5762;43.256;26.960;2023-02-14T06:15:30;100929.75;;;-0.01;100.00
11413;BME280;5762;43.256;26.960;2023-02-14T06:17:56;100919.67;;;0.25;100.00
11413;BME280;5762;43.256;26.960;2023-02-14T06:20:25;100913.33;;;0.40;100.00
11413;BME280;5762;43.256;26.960;2023-02-14T06:22:54;100911.63;;;0.62;100.00
11413;BME280;5762;43.256;26.960;2023-02-14T06:25:22;100904.95;;;0.76;100.00
11413;BME280;5762;43.256;26.960;2023-02-14T06:27:57;100905.02;;;1.11;100.00
11413;BME280;5762;43.256;26.960;2023-02-14T06:30:21;100911.10;;;1.45;100.00
11413;BME280;5762;43.256;26.960;2023-02-14T06:32:50;100915.72;;;1.47;100.00
11413;BME280;5762;43.256;26.960;2023-02-14T06:35:18;100899.96;;;1.67;100.00
11413;BME280;5762;43.256;26.960;2023-02-14T06:37:47;100887.43;;;1.90;100.00
11413;BME280;5762;43.256;26.960;2023-02-14T06:40:16;100890.67;;;2.15;100.00
11413;BME280;5762;43.256;26.960;2023-02-14T06:42:45;100876.00;;;2.30;100.00
11413;BME280;5762;43.256;26.960;2023-02-14T06:45:14;100864.98;;;2.45;100.00
11413;BME280;5762;43.256;26.960;2023-02-14T06:47:43;100865.97;;;2.51;100.00
11413;BME280;5762;43.256;26.960;2023-02-14T06:50:13;100856.88;;;2.58;100.00
11413;BME280;5762;43.256;26.960;2023-02-14T06:52:42;100859.72;;;2.63;100.00
11413;BME280;5762;43.256;26.960;2023-02-14T06:55:10;100850.66;;;2.64;100.00
11413;BME280;5762;43.256;26.960;2023-02-14T06:57:39;100856.69;;;2.69;100.00
11413;BME280;5762;43.256;26.960;2023-02-14T07:00:08;100837.67;;;2.68;100.00
11413;BME280;5762;43.256;26.960;2023-02-14T07:02:36;100848.45;;;2.71;100.00
11413;BME280;5762;43.256;26.960;2023-02-14T07:05:05;100835.98;;;2.74;100.00
11413;BME280;5762;43.256;26.960;2023-02-14T07:07:34;100833.31;;;2.74;100.00
11413;BME280;5762;43.256;26.960;2023-02-14T07:10:03;100834.86;;;2.81;100.00
11413;BME280;5762;43.256;26.960;2023-02-14T07:12:32;100833.52;;;2.81;100.00
11413;BME280;5762;43.256;26.960;2023-02-14T07:15:01;100815.79;;;2.87;100.00
11413;BME280;5762;43.256;26.960;2023-02-14T07:17:30;100827.46;;;2.92;100.00
11413;BME280;5762;43.256;26.960;2023-02-14T07:19:58;100840.69;;;2.96;100.00
11413;BME280;5762;43.256;26.960;2023-02-14T07:22:27;100832.75;;;2.99;100.00
11413;BME280;5762;43.256;26.960;2023-02-14T07:24:56;100847.91;;;3.05;100.00
11413;BME280;5762;43.256;26.960;2023-02-14T07:27:25;100844.50;;;3.07;100.00
11413;BME280;5762;43.256;26.960;2023-02-14T07:29:53;100843.54;;;3.11;100.00
11413;BME280;5762;43.256;26.960;2023-02-14T07:32:22;100855.48;;;3.17;100.00
11413;BME280;5762;43.256;26.960;2023-02-14T07:34:50;100858.16;;;3.17;100.00
11413;BME280;5762;43.256;26.960;2023-02-14T07:37:19;100855.26;;;3.19;100.00
11413;BME280;5762;43.256;26.960;2023-02-14T07:39:47;100830.82;;;3.24;100.00
11413;BME280;5762;43.256;26.960;2023-02-14T07:42:16;100830.37;;;3.18;100.00
11413;BME280;5762;43.256;26.960;2023-02-14T07:44:44;100849.17;;;3.21;100.00
11413;BME280;5762;43.256;26.960;2023-02-14T07:47:13;100851.11;;;3.32;100.00
11413;BME280;5762;43.256;26.960;2023-02-14T07:49:41;100841.23;;;3.42;100.00
11413;BME280;5762;43.256;26.960;2023-02-14T07:52:10;100850.30;;;3.41;100.00
11413;BME280;5762;43.256;26.960;2023-02-14T07:54:38;100843.43;;;3.54;100.00
11413;BME280;5762;43.256;26.960;2023-02-14T07:57:06;100824.70;;;3.54;100.00
11413;BME280;5762;43.256;26.960;2023-02-14T07:59:35;100825.28;;;3.65;100.00
11413;BME280;5762;43.256;26.960;2023-02-14T08:02:04;100835.46;;;3.75;100.00
11413;BME280;5762;43.256;26.960;2023-02-14T08:04:33;100836.46;;;3.83;100.00
11413;BME280;5762;43.256;26.960;2023-02-14T08:07:02;100831.84;;;3.90;100.00
11413;BME280;5762;43.256;26.960;2023-02-14T08:09:30;100825.44;;;3.91;100.00
11413;BME280;5762;43.256;26.960;2023-02-14T08:11:59;100826.55;;;3.92;100.00
11413;BME280;5762;43.256;26.960;2023-02-14T08:14:45;100818.15;;;3.89;100.00
11413;BME280;5762;43.256;26.960;2023-02-14T08:17:14;100824.69;;;3.93;100.00
11413;BME280;5762;43.256;26.960;2023-02-14T08:19:43;100831.95;;;4.04;100.00
11413;BME280;5762;43.256;26.960;2023-02-14T08:22:11;100823.25;;;4.20;100.00
11413;BME280;5762;43.256;26.960;2023-02-14T08:24:40;100817.81;;;4.06;100.00
11413;BME280;5762;43.256;26.960;2023-02-14T08:27:09;100826.66;;;4.07;100.00
11413;BME280;5762;43.256;26.960;2023-02-14T08:29:38;100829.91;;;4.29;100.00
11413;BME280;5762;43.256;26.960;2023-02-14T08:32:07;100826.73;;;4.42;100.00
11413;BME280;5762;43.256;26.960;2023-02-14T08:34:36;100822.48;;;4.43;100.00
11413;BME280;5762;43.256;26.960;2023-02-14T08:37:05;100822.84;;;4.58;100.00
11413;BME280;5762;43.256;26.960;2023-02-14T08:39:34;100828.66;;;4.55;100.00
11413;BME280;5762;43.256;26.960;2023-02-14T08:42:03;100824.58;;;4.53;100.00
11413;BME280;5762;43.256;26.960;2023-02-14T08:44:32;100821.91;;;4.64;100.00
11413;BME280;5762;43.256;26.960;2023-02-14T08:47:00;100823.16;;;4.83;100.00
11413;BME280;5762;43.256;26.960;2023-02-14T08:49:29;100822.05;;;4.81;100.00
11413;BME280;5762;43.256;26.960;2023-02-14T08:51:58;100827.44;;;4.95;100.00
11413;BME280;5762;43.256;26.960;2023-02-14T08:54:27;100831.30;;;5.11;100.00
11413;BME280;5762;43.256;26.960;2023-02-14T08:56:55;100822.89;;;5.33;100.00
11413;BME280;5762;43.256;26.960;2023-02-14T08:59:24;100818.70;;;5.26;100.00
11413;BME280;5762;43.256;26.960;2023-02-14T09:01:53;100815.73;;;5.25;100.00
11413;BME280;5762;43.256;26.960;2023-02-14T09:04:22;100809.84;;;5.25;100.00
11413;BME280;5762;43.256;26.960;2023-02-14T09:06:51;100806.90;;;5.38;100.00
11413;BME280;5762;43.256;26.960;2023-02-14T09:09:20;100812.66;;;5.45;100.00
11413;BME280;5762;43.256;26.960;2023-02-14T09:11:49;100807.73;;;5.53;100.00
11413;BME280;5762;43.256;26.960;2023-02-14T09:14:18;100810.66;;;5.52;100.00
11413;BME280;5762;43.256;26.960;2023-02-14T09:16:47;100811.24;;;5.54;100.00
11413;BME280;5762;43.256;26.960;2023-02-14T09:19:16;100805.08;;;5.56;100.00
11413;BME280;5762;43.256;26.960;2023-02-14T09:21:45;100803.89;;;5.63;100.00
11413;BME280;5762;43.256;26.960;2023-02-14T09:24:13;100800.59;;;5.73;100.00
11413;BME280;5762;43.256;26.960;2023-02-14T09:26:42;100804.48;;;5.80;100.00
11413;BME280;5762;43.256;26.960;2023-02-14T09:29:11;100805.11;;;5.84;100.00
11413;BME280;5762;43.256;26.960;2023-02-14T09:31:40;100811.14;;;5.77;100.00
11413;BME280;5762;43.256;26.960;2023-02-14T09:34:09;100807.50;;;5.83;100.00
11413;BME280;5762;43.256;26.960;2023-02-14T09:36:54;100793.92;;;6.04;100.00
11413;BME280;5762;43.256;26.960;2023-02-14T09:39:40;100783.03;;;5.96;100.00
11413;BME280;5762;43.256;26.960;2023-02-14T09:42:13;100788.89;;;5.93;100.00
11413;BME280;5762;43.256;26.960;2023-02-14T09:44:39;100770.41;;;5.97;100.00
11413;BME280;5762;43.256;26.960;2023-02-14T09:49:38;100775.97;;;6.07;100.00
11413;BME280;5762;43.256;26.960;2023-02-14T09:52:08;100773.96;;;6.00;100.00
11413;BME280;5762;43.256;26.960;2023-02-14T09:54:36;100779.72;;;6.06;100.00
11413;BME280;5762;43.256;26.960;2023-02-14T09:59:36;100789.14;;;6.39;100.00
11413;BME280;5762;43.256;26.960;2023-02-14T10:04:50;100787.55;;;6.41;100.00
11413;BME280;5762;43.256;26.960;2023-02-14T10:07:29;100789.97;;;6.59;100.00
11413;BME280;5762;43.256;26.960;2023-02-14T10:12:30;100772.23;;;6.61;100.00
11413;BME280;5762;43.256;26.960;2023-02-14T10:14:59;100771.86;;;6.71;100.00
11413;BME280;5762;43.256;26.960;2023-02-14T10:17:33;100780.95;;;6.68;100.00
11413;BME280;5762;43.256;26.960;2023-02-14T10:20:02;100771.73;;;6.81;100.00
11413;BME280;5762;43.256;26.960;2023-02-14T10:22:41;100754.25;;;7.02;100.00
11413;BME280;5762;43.256;26.960;2023-02-14T10:25:20;100765.72;;;6.93;100.00
11413;BME280;5762;43.256;26.960;2023-02-14T10:27:47;100771.64;;;6.95;100.00
11413;BME280;5762;43.256;26.960;2023-02-14T10:30:17;100766.40;;;7.05;100.00
11413;BME280;5762;43.256;26.960;2023-02-14T10:32:46;100764.69;;;7.18;100.00
11413;BME280;5762;43.256;26.960;2023-02-14T10:35:24;100745.63;;;7.22;100.00
11413;BME280;5762;43.256;26.960;2023-02-14T10:38:00;100763.28;;;7.13;100.00
11413;BME280;5762;43.256;26.960;2023-02-14T10:43:09;100749.17;;;7.25;100.00
11413;BME280;5762;43.256;26.960;2023-02-14T10:48:21;100766.61;;;7.45;100.00
11413;BME280;5762;43.256;26.960;2023-02-14T10:50:49;100769.08;;;7.49;100.00
11413;BME280;5762;43.256;26.960;2023-02-14T10:53:25;100769.80;;;7.66;100.00
11413;BME280;5762;43.256;26.960;2023-02-14T10:56:01;100762.94;;;7.80;100.00
11413;BME280;5762;43.256;26.960;2023-02-14T10:58:30;100755.36;;;7.77;100.00
11413;BME280;5762;43.256;26.960;2023-02-14T11:01:00;100752.89;;;7.73;100.00
11413;BME280;5762;43.256;26.960;2023-02-14T11:03:28;100752.11;;;7.75;100.00
11413;BME280;5762;43.256;26.960;2023-02-14T11:05:57;100747.05;;;7.81;100.00
11413;BME280;5762;43.256;26.960;2023-02-14T11:08:58;100750.20;;;7.73;100.00
11413;BME280;5762;43.256;26.960;2023-02-14T11:11:15;100748.02;;;7.70;100.00
11413;BME280;5762;43.256;26.960;2023-02-14T11:13:42;100742.50;;;7.84;100.00
11413;BME280;5762;43.256;26.960;2023-02-14T11:16:11;100736.94;;;7.93;100.00
11413;BME280;5762;43.256;26.960;2023-02-14T11:18:40;100733.02;;;7.79;100.00
11413;BME280;5762;43.256;26.960;2023-02-14T11:21:15;100722.72;;;7.73;100.00
11413;BME280;5762;43.256;26.960;2023-02-14T11:23:46;100720.38;;;7.82;100.00
11413;BME280;5762;43.256;26.960;2023-02-14T11:26:22;100718.17;;;8.08;100.00
11413;BME280;5762;43.256;26.960;2023-02-14T11:28:57;100711.73;;;8.12;100.00
11413;BME280;5762;43.256;26.960;2023-02-14T11:31:33;100705.59;;;8.19;100.00
11413;BME280;5762;43.256;26.960;2023-02-14T11:34:02;100702.67;;;8.26;100.00
11413;BME280;5762;43.256;26.960;2023-02-14T11:36:31;100697.32;;;8.31;100.00
11413;BME280;5762;43.256;26.960;2023-02-14T11:39:02;100685.92;;;8.21;100.00
11413;BME280;5762;43.256;26.960;2023-02-14T11:41:44;100696.64;;;8.14;100.00
11413;BME280;5762;43.256;26.960;2023-02-14T11:44:10;100695.98;;;7.96;100.00
11413;BME280;5762;43.256;26.960;2023-02-14T11:46:29;100692.59;;;7.79;100.00
11413;BME280;5762;43.256;26.960;2023-02-14T11:48:59;100688.94;;;7.61;100.00
11413;BME280;5762;43.256;26.960;2023-02-14T11:51:38;100690.66;;;7.45;100.00
11413;BME280;5762;43.256;26.960;2023-02-14T11:54:09;100693.56;;;7.68;100.00
11413;BME280;5762;43.256;26.960;2023-02-14T11:56:50;100699.72;;;7.61;100.00
11413;BME280;5762;43.256;26.960;2023-02-14T11:59:31;100692.09;;;7.53;100.00
11413;BME280;5762;43.256;26.960;2023-02-14T12:02:01;100688.43;;;7.66;100.00
11413;BME280;5762;43.256;26.960;2023-02-14T12:04:34;100679.02;;;7.69;100.00
11413;BME280;5762;43.256;26.960;2023-02-14T12:07:16;100679.53;;;7.66;100.00
11413;BME280;5762;43.256;26.960;2023-02-14T12:09:45;100680.52;;;7.84;100.00
11413;BME280;5762;43.256;26.960;2023-02-14T12:12:17;100668.05;;;8.13;100.00
11413;BME280;5762;43.256;26.960;2023-02-14T12:14:45;100680.23;;;8.18;100.00
11413;BME280;5762;43.256;26.960;2023-02-14T12:19:45;100681.39;;;8.29;100.00
11413;BME280;5762;43.256;26.960;2023-02-14T12:22:18;100679.06;;;8.43;100.00
11413;BME280;5762;43.256;26.960;2023-02-14T12:24:48;100672.09;;;8.50;100.00
11413;BME280;5762;43.256;26.960;2023-02-14T12:27:20;100657.34;;;8.65;100.00
11413;BME280;5762;43.256;26.960;2023-02-14T12:29:50;100663.52;;;8.58;100.00
11413;BME280;5762;43.256;26.960;2023-02-14T12:34:47;100659.77;;;8.69;100.00
11413;BME280;5762;43.256;26.960;2023-02-14T12:37:25;100663.71;;;8.46;100.00
11413;BME280;5762;43.256;26.960;2023-02-14T12:47:30;100661.63;;;8.19;100.00
11413;BME280;5762;43.256;26.960;2023-02-14T12:55:17;100651.84;;;7.73;100.00
11413;BME280;5762;43.256;26.960;2023-02-14T13:00:26;100631.79;;;7.56;100.00
11413;BME280;5762;43.256;26.960;2023-02-14T13:08:16;100633.39;;;7.55;100.00
11413;BME280;5762;43.256;26.960;2023-02-14T13:13:24;100634.94;;;7.80;100.00
11413;BME280;5762;43.256;26.960;2023-02-14T13:15:59;100626.47;;;7.66;100.00
11413;BME280;5762;43.256;26.960;2023-02-14T13:21:13;100623.47;;;7.63;100.00
11413;BME280;5762;43.256;26.960;2023-02-14T13:23:46;100633.84;;;7.79;100.00
11413;BME280;5762;43.256;26.960;2023-02-14T13:26:12;100636.69;;;7.96;100.00
11413;BME280;5762;43.256;26.960;2023-02-14T13:28:44;100626.19;;;8.02;100.00
11413;BME280;5762;43.256;26.960;2023-02-14T13:31:10;100628.08;;;8.02;100.00
11413;BME280;5762;43.256;26.960;2023-02-14T13:33:41;100574.55;;;7.76;100.00
11413;BME280;5762;43.256;26.960;2023-02-14T13:36:09;100622.77;;;8.15;100.00
11413;BME280;5762;43.256;26.960;2023-02-14T13:38:51;100627.89;;;8.14;100.00
11413;BME280;5762;43.256;26.960;2023-02-14T13:41:20;100619.25;;;8.12;100.00
11413;BME280;5762;43.256;26.960;2023-02-14T13:43:54;100623.59;;;8.15;100.00
11413;BME280;5762;43.256;26.960;2023-02-14T13:51:48;100624.34;;;8.08;100.00
11413;BME280;5762;43.256;26.960;2023-02-14T13:54:25;100637.02;;;8.07;100.00
11413;BME280;5762;43.256;26.960;2023-02-14T13:56:50;100624.67;;;8.17;100.00
11413;BME280;5762;43.256;26.960;2023-02-14T13:59:24;100627.65;;;8.18;100.00
11413;BME280;5762;43.256;26.960;2023-02-14T14:01:51;100623.50;;;8.02;100.00
11413;BME280;5762;43.256;26.960;2023-02-14T14:17:38;100608.47;;;7.40;100.00
11413;BME280;5762;43.256;26.960;2023-02-14T14:22:52;100602.24;;;7.37;100.00
11413;BME280;5762;43.256;26.960;2023-02-14T14:28:16;100604.59;;;7.58;100.00
11413;BME280;5762;43.256;26.960;2023-02-14T14:30:38;100602.22;;;7.66;100.00
11413;BME280;5762;43.256;26.960;2023-02-14T14:33:11;100605.70;;;7.64;100.00
11413;BME280;5762;43.256;26.960;2023-02-14T14:35:50;100598.42;;;7.60;100.00
11413;BME280;5762;43.256;26.960;2023-02-14T14:38:11;100592.73;;;7.56;100.00
11413;BME280;5762;43.256;26.960;2023-02-14T14:40:38;100603.43;;;7.49;100.00